Airport Name : Upington

Other Name : Upington

ICAO : FAUP

IATA : UTN

FAA :

Latitude : -28.399097

Longitude : 21.260239

Country : South Africa

Local Date and Time : 22 May 2024 23:33

 

TAF (Terminal Aerodrome Forecast)

TAF FAUP 221600Z 2218/2318 VRB03KT CAVOK TX30/2313Z TN10/2304Z BECMG 2309/2311 34012KT

 

METAR (METeorological Aerodrome Report)

FAUP 222100Z AUTO 01007KT //// // ////// 18/M00 Q1022

FAUP 222000Z AUTO 01007KT //// // ////// 19/M00 Q1022

FAUP 221900Z AUTO 01007KT //// // ////// 20/M00 Q1022

FAUP 221800Z 02006KT CAVOK 20/M00 Q1022 NOSIG